DNO773 LGIR-LGST
Flight info
| Callsign | DNO773 |
|---|---|
| Flight time | 0h 21m |
| Altitude | 9000 |
| Route | LABUX |
| Aircraft | B36T/L-BDFGLORY/S |
Departure
| Time | 2026-04-20 17:41 |
|---|---|
| Airport | Heraklion International Nikos Kazantzakis Airport (LGIR) |
Arrival
| Time | 2026-04-20 18:02 |
|---|---|
| Airport | Sitia Airport (LGST) |
| Time | Latitude | Longitude | Altitude | Speed | Heading |
|---|---|---|---|---|---|
| 2026-04-20 17:38 | 35.33922 | 25.16729 | 85 ft | 0 kts | 317° |
| 2026-04-20 17:39 | 35.33950 | 25.16712 | 85 ft | 3 kts | 340° |
| 2026-04-20 17:39 | 35.33985 | 25.16690 | 86 ft | 0 kts | 326° |
| 2026-04-20 17:40 | 35.34038 | 25.16690 | 84 ft | 12 kts | 55° |
| 2026-04-20 17:40 | 35.34051 | 25.16906 | 84 ft | 66 kts | 93° |
| 2026-04-20 17:40 | 35.34059 | 25.17760 | 298 ft | 121 kts | 78° |
| 2026-04-20 17:40 | 35.33962 | 25.18919 | 487 ft | 152 kts | 101° |
| 2026-04-20 17:41 | 35.33799 | 25.20247 | 722 ft | 164 kts | 92° |
| 2026-04-20 17:41 | 35.33709 | 25.21659 | 1000 ft | 169 kts | 91° |
| 2026-04-20 17:41 | 35.34022 | 25.22999 | 1246 ft | 165 kts | 50° |
| 2026-04-20 17:41 | 35.34493 | 25.24287 | 1490 ft | 173 kts | 87° |
| 2026-04-20 17:42 | 35.34169 | 25.25694 | 1752 ft | 174 kts | 115° |
| 2026-04-20 17:42 | 35.33892 | 25.27136 | 2004 ft | 176 kts | 94° |
| 2026-04-20 17:42 | 35.33837 | 25.28639 | 2262 ft | 177 kts | 90° |
| 2026-04-20 17:42 | 35.33787 | 25.30150 | 2516 ft | 179 kts | 91° |
| 2026-04-20 17:43 | 35.33726 | 25.31674 | 2762 ft | 179 kts | 91° |
| 2026-04-20 17:43 | 35.33662 | 25.33201 | 3014 ft | 180 kts | 91° |
| 2026-04-20 17:43 | 35.33598 | 25.34731 | 3264 ft | 180 kts | 91° |
| 2026-04-20 17:43 | 35.33534 | 25.36283 | 3515 ft | 186 kts | 91° |
| 2026-04-20 17:44 | 35.33466 | 25.37882 | 3771 ft | 189 kts | 91° |
| 2026-04-20 17:44 | 35.33397 | 25.39500 | 4027 ft | 191 kts | 91° |
| 2026-04-20 17:44 | 35.33328 | 25.41127 | 4281 ft | 192 kts | 91° |
| 2026-04-20 17:44 | 35.33258 | 25.42762 | 4536 ft | 192 kts | 91° |
| 2026-04-20 17:45 | 35.33189 | 25.44388 | 4791 ft | 191 kts | 91° |
| 2026-04-20 17:45 | 35.33120 | 25.46015 | 5037 ft | 192 kts | 91° |
| 2026-04-20 17:45 | 35.33050 | 25.47644 | 5288 ft | 192 kts | 91° |
| 2026-04-20 17:45 | 35.32980 | 25.49277 | 5541 ft | 191 kts | 91° |
| 2026-04-20 17:46 | 35.32910 | 25.50889 | 5786 ft | 191 kts | 91° |
| 2026-04-20 17:46 | 35.32840 | 25.52515 | 6039 ft | 191 kts | 91° |
| 2026-04-20 17:46 | 35.32768 | 25.54148 | 6295 ft | 191 kts | 91° |
| 2026-04-20 17:46 | 35.32698 | 25.55773 | 6542 ft | 191 kts | 91° |
| 2026-04-20 17:47 | 35.32627 | 25.57401 | 6785 ft | 191 kts | 91° |
| 2026-04-20 17:47 | 35.32555 | 25.59029 | 7030 ft | 192 kts | 91° |
| 2026-04-20 17:47 | 35.32483 | 25.60670 | 7273 ft | 193 kts | 90° |
| 2026-04-20 17:47 | 35.32411 | 25.62314 | 7518 ft | 193 kts | 90° |
| 2026-04-20 17:48 | 35.32337 | 25.63959 | 7763 ft | 194 kts | 91° |
| 2026-04-20 17:48 | 35.32263 | 25.65613 | 8015 ft | 194 kts | 90° |
| 2026-04-20 17:48 | 35.32190 | 25.67262 | 8265 ft | 194 kts | 90° |
| 2026-04-20 17:48 | 35.32117 | 25.68912 | 8517 ft | 194 kts | 90° |
| 2026-04-20 17:49 | 35.32043 | 25.70560 | 8772 ft | 194 kts | 90° |
| 2026-04-20 17:49 | 35.31970 | 25.72216 | 8966 ft | 198 kts | 90° |
| 2026-04-20 17:49 | 35.31893 | 25.73916 | 8966 ft | 205 kts | 90° |
| 2026-04-20 17:49 | 35.31814 | 25.75675 | 8974 ft | 207 kts | 90° |
| 2026-04-20 17:50 | 35.31734 | 25.77434 | 8979 ft | 208 kts | 90° |
| 2026-04-20 17:50 | 35.31654 | 25.79209 | 8978 ft | 209 kts | 90° |
| 2026-04-20 17:50 | 35.31573 | 25.80992 | 8978 ft | 210 kts | 90° |
| 2026-04-20 17:50 | 35.31489 | 25.82747 | 8885 ft | 202 kts | 90° |
| 2026-04-20 17:51 | 35.31409 | 25.84463 | 8756 ft | 201 kts | 90° |
| 2026-04-20 17:51 | 35.31332 | 25.86168 | 8625 ft | 200 kts | 90° |
| 2026-04-20 17:51 | 35.31254 | 25.87866 | 8497 ft | 200 kts | 90° |
| 2026-04-20 17:51 | 35.31176 | 25.89566 | 8370 ft | 200 kts | 90° |
| 2026-04-20 17:52 | 35.31097 | 25.91261 | 8244 ft | 199 kts | 90° |
| 2026-04-20 17:52 | 35.31019 | 25.92934 | 8120 ft | 199 kts | 90° |
| 2026-04-20 17:52 | 35.30940 | 25.94628 | 7994 ft | 199 kts | 90° |
| 2026-04-20 17:52 | 35.30860 | 25.96324 | 7871 ft | 199 kts | 90° |
| 2026-04-20 17:53 | 35.30781 | 25.98010 | 7747 ft | 198 kts | 90° |
| 2026-04-20 17:53 | 35.30702 | 25.99690 | 7621 ft | 197 kts | 90° |
| 2026-04-20 17:53 | 35.30622 | 26.01344 | 7495 ft | 187 kts | 90° |
| 2026-04-20 17:53 | 35.30546 | 26.02890 | 7338 ft | 177 kts | 89° |
| 2026-04-20 17:54 | 35.30479 | 26.04383 | 7182 ft | 174 kts | 89° |
| 2026-04-20 17:54 | 35.30410 | 26.05855 | 7031 ft | 173 kts | 89° |
| 2026-04-20 17:54 | 35.30340 | 26.07322 | 6882 ft | 172 kts | 89° |
| 2026-04-20 17:54 | 35.30270 | 26.08786 | 6735 ft | 172 kts | 89° |
| 2026-04-20 17:55 | 35.30201 | 26.10228 | 6592 ft | 172 kts | 89° |
| 2026-04-20 17:55 | 35.30130 | 26.11703 | 6444 ft | 171 kts | 89° |
| 2026-04-20 17:55 | 35.30060 | 26.13135 | 6296 ft | 170 kts | 89° |
| 2026-04-20 17:55 | 35.29991 | 26.14588 | 6142 ft | 172 kts | 89° |
| 2026-04-20 17:56 | 35.29919 | 26.16053 | 5987 ft | 172 kts | 89° |
| 2026-04-20 17:56 | 35.30121 | 26.17437 | 5825 ft | 163 kts | 54° |
| 2026-04-20 17:56 | 35.30785 | 26.18536 | 5668 ft | 161 kts | 51° |
| 2026-04-20 17:56 | 35.31350 | 26.19736 | 5526 ft | 164 kts | 58° |
| 2026-04-20 17:57 | 35.31519 | 26.21127 | 5367 ft | 174 kts | 100° |
| 2026-04-20 17:57 | 35.30838 | 26.22328 | 5212 ft | 176 kts | 147° |
| 2026-04-20 17:57 | 35.29688 | 26.22644 | 5059 ft | 169 kts | 194° |
| 2026-04-20 17:57 | 35.28747 | 26.21939 | 4911 ft | 155 kts | 241° |
| 2026-04-20 17:58 | 35.28449 | 26.20730 | 4765 ft | 147 kts | 265° |
| 2026-04-20 17:58 | 35.28156 | 26.19529 | 4619 ft | 151 kts | 252° |
| 2026-04-20 17:58 | 35.27555 | 26.18447 | 4469 ft | 156 kts | 236° |
| 2026-04-20 17:58 | 35.26867 | 26.17542 | 3739 ft | 137 kts | 227° |
| 2026-04-20 17:59 | 35.26180 | 26.16826 | 2858 ft | 123 kts | 230° |
| 2026-04-20 17:59 | 35.25584 | 26.16141 | 2105 ft | 112 kts | 235° |
| 2026-04-20 17:59 | 35.25111 | 26.15498 | 1519 ft | 87 kts | 240° |
| 2026-04-20 17:59 | 35.24743 | 26.14962 | 1108 ft | 85 kts | 241° |
| 2026-04-20 18:00 | 35.24357 | 26.14374 | 943 ft | 92 kts | 240° |
| 2026-04-20 18:00 | 35.23979 | 26.13747 | 825 ft | 89 kts | 240° |
| 2026-04-20 18:00 | 35.23609 | 26.13184 | 675 ft | 81 kts | 240° |
| 2026-04-20 18:00 | 35.23256 | 26.12637 | 566 ft | 82 kts | 240° |
| 2026-04-20 18:01 | 35.22913 | 26.12051 | 463 ft | 86 kts | 240° |
| 2026-04-20 18:01 | 35.22660 | 26.11676 | 405 ft | 86 kts | 233° |
| 2026-04-20 18:01 | 35.22292 | 26.11134 | 338 ft | 81 kts | 233° |
| 2026-04-20 18:01 | 35.21944 | 26.10616 | 337 ft | 78 kts | 235° |
| 2026-04-20 18:02 | 35.21602 | 26.10110 | 356 ft | 75 kts | 235° |
| 2026-04-20 18:02 | 35.21366 | 26.09755 | 359 ft | 11 kts | 225° |
| 2026-04-20 18:02 | 35.21363 | 26.09751 | 359 ft | 0 kts | 225° |
| 2026-04-20 18:02 | 35.21363 | 26.09752 | 359 ft | 0 kts | 225° |